Terminal Aerodrome Forecast
Issued by NWS

Home | Current Version | Previous Version | Text Only | Print | Product List | Glossary On
Versions: 1 2 3 4 5 6 7 8 9 10 11 12 13 14 15
000
FTUS41 KBTV 270532
TAFMSS
TAF
KMSS 270532Z 2706/2806 23007KT 5SM BR BKN003
     FM271300 34007KT 5SM BR OVC012
     FM271400 34008KT 5SM BR OVC015
     FM272300 33007KT P6SM BKN025
     FM280500 36008KT P6SM BKN035=

USA.gov is the U.S. government's official web portal to all federal, state and local government web resources and services.